Time;durP1;ratioP1;P1;durP2;ratioP2;P2;SDS_P1;SDS_P2;PMS_P1;PMS_P2;Temp;Humidity;BMP_temperature;BMP_pressure;BME280_temperature;BME280_humidity;BME280_pressure;Samples;Min_cycle;Max_cycle;Signal;HPM_P1;HPM_P2
2021/12/31 00:00:11;;;;;;;3.72;3.00;;;;;;;;;;5044975;28;20037;-34
2021/12/31 00:02:36;;;;;;;4.30;3.20;;;;;;;;;;5044764;28;20094;-31
2021/12/31 00:05:02;;;;;;;3.95;2.97;;;;;;;;;;5044827;28;20396;-33
2021/12/31 00:07:28;;;;;;;3.55;2.75;;;;;;;;;;5044596;28;20039;-31
2021/12/31 00:09:59;;;;;;;4.80;3.10;;;;;;;;;;5044149;28;20036;-36
2021/12/31 00:12:24;;;;;;;4.80;3.28;;;;;;;;;;5044513;28;20033;-33
2021/12/31 00:14:50;;;;;;;4.07;3.00;;;;;;;;;;5044621;28;20511;-32
2021/12/31 00:17:15;;;;;;;3.92;2.70;;;;;;;;;;5044412;28;20032;-29
2021/12/31 00:19:44;;;;;;;4.25;3.20;;;;;;;;;;5044383;28;20064;-32
2021/12/31 00:24:59;;;;;;;3.67;2.90;;;;;;;;;;5033534;28;20037;-30
2021/12/31 00:27:24;;;;;;;4.00;2.90;;;;;;;;;;5044239;28;20028;-32
2021/12/31 00:29:50;;;;;;;3.20;2.50;;;;;;;;;;5043688;28;20035;-35
2021/12/31 00:32:16;;;;;;;4.03;3.00;;;;;;;;;;5044091;28;20024;-36
2021/12/31 00:34:41;;;;;;;3.60;2.80;;;;;;;;;;5043972;28;20044;-29
2021/12/31 00:37:07;;;;;;;3.97;2.83;;;;;;;;;;5044124;28;20025;-29
2021/12/31 00:39:32;;;;;;;3.45;2.65;;;;;;;;;;5044241;28;20506;-28
2021/12/31 00:41:58;;;;;;;3.67;2.85;;;;;;;;;;5043956;28;20366;-29
2021/12/31 00:44:25;;;;;;;3.75;2.92;;;;;;;;;;5043866;28;20025;-34
2021/12/31 00:46:50;;;;;;;3.53;2.75;;;;;;;;;;5039437;28;20033;-29
2021/12/31 00:49:16;;;;;;;3.42;2.63;;;;;;;;;;5024171;28;20021;-30
2021/12/31 00:51:41;;;;;;;4.38;2.95;;;;;;;;;;5023635;28;20946;-29
2021/12/31 00:54:07;;;;;;;4.32;2.53;;;;;;;;;;5024253;28;20021;-33
2021/12/31 00:56:33;;;;;;;3.72;2.92;;;;;;;;;;5024064;28;20029;-33
2021/12/31 00:58:58;;;;;;;4.32;3.00;;;;;;;;;;5023596;28;20025;-29
2021/12/31 01:01:25;;;;;;;4.10;2.80;;;;;;;;;;5023825;28;20060;-28
2021/12/31 01:03:51;;;;;;;3.33;2.78;;;;;;;;;;5023715;28;20702;-37
2021/12/31 01:06:16;;;;;;;3.67;2.75;;;;;;;;;;5023658;28;20077;-33
2021/12/31 01:08:42;;;;;;;3.38;2.55;;;;;;;;;;5023500;28;20053;-33
2021/12/31 01:11:07;;;;;;;3.83;2.65;;;;;;;;;;5023344;28;20033;-29
2021/12/31 01:14:25;;;;;;;3.67;2.80;;;;;;;;;;5023784;28;20033;-30
2021/12/31 01:16:23;;;;;;;4.43;3.25;;;;;;;;;;5023060;28;20041;-34
2021/12/31 01:21:18;;;;;;;3.25;2.67;;;;;;;;;;5023293;28;20904;-31
2021/12/31 01:23:44;;;;;;;4.50;3.15;;;;;;;;;;5023380;28;20036;-33
2021/12/31 01:26:12;;;;;;;3.90;2.88;;;;;;;;;;5023391;28;20033;-31
2021/12/31 01:28:37;;;;;;;3.90;2.90;;;;;;;;;;5023278;28;20029;-36
2021/12/31 01:31:03;;;;;;;3.92;2.78;;;;;;;;;;5022987;28;20029;-33
2021/12/31 01:33:29;;;;;;;3.47;2.92;;;;;;;;;;5023112;28;20029;-33
2021/12/31 01:35:55;;;;;;;3.10;2.80;;;;;;;;;;5022919;28;20117;-32
2021/12/31 01:38:20;;;;;;;4.28;3.00;;;;;;;;;;5023067;28;20099;-32
2021/12/31 01:40:46;;;;;;;3.90;3.28;;;;;;;;;;5023296;28;20036;-31
2021/12/31 01:43:12;;;;;;;3.83;2.88;;;;;;;;;;5023310;28;20487;-31
2021/12/31 01:45:44;;;;;;;4.00;2.88;;;;;;;;;;5023225;28;20500;-36
2021/12/31 01:48:22;;;;;;;4.03;3.10;;;;;;;;;;5037627;28;20028;-35
2021/12/31 01:50:49;;;;;;;3.67;2.92;;;;;;;;;;5042799;28;20068;-34
2021/12/31 01:53:15;;;;;;;4.40;2.95;;;;;;;;;;5043200;28;20112;-32
2021/12/31 01:55:41;;;;;;;4.13;3.05;;;;;;;;;;5042513;28;20033;-31
2021/12/31 01:58:07;;;;;;;4.25;3.13;;;;;;;;;;5041400;28;20033;-32
2021/12/31 02:00:33;;;;;;;3.90;3.10;;;;;;;;;;5041357;28;20090;-32
2021/12/31 02:03:00;;;;;;;3.08;2.75;;;;;;;;;;5042748;28;20044;-34
2021/12/31 02:05:25;;;;;;;3.95;2.92;;;;;;;;;;5042986;28;20056;-30
2021/12/31 02:07:51;;;;;;;3.03;2.60;;;;;;;;;;5042528;28;20481;-30
2021/12/31 02:10:16;;;;;;;3.72;2.90;;;;;;;;;;5043057;28;20383;-31
2021/12/31 02:12:45;;;;;;;3.83;3.17;;;;;;;;;;5042900;28;20044;-35
2021/12/31 02:15:11;;;;;;;3.00;2.50;;;;;;;;;;5042988;28;20094;-28
2021/12/31 02:17:37;;;;;;;3.40;2.83;;;;;;;;;;5041585;28;20216;-30
2021/12/31 02:20:07;;;;;;;3.00;2.53;;;;;;;;;;5042343;28;20080;-31
2021/12/31 02:22:39;;;;;;;3.25;2.63;;;;;;;;;;5045339;28;20051;-30
2021/12/31 02:25:08;;;;;;;3.80;2.95;;;;;;;;;;5046782;28;20033;-29
2021/12/31 02:27:38;;;;;;;2.90;2.55;;;;;;;;;;5046636;28;20040;-30
2021/12/31 02:30:04;;;;;;;3.75;2.75;;;;;;;;;;5029416;28;20090;-34
2021/12/31 02:32:30;;;;;;;3.33;2.53;;;;;;;;;;5026761;28;20033;-36
2021/12/31 02:34:55;;;;;;;2.72;2.45;;;;;;;;;;5026337;28;20083;-31
2021/12/31 02:37:21;;;;;;;2.97;2.65;;;;;;;;;;5041847;28;20037;-35
2021/12/31 02:39:47;;;;;;;3.20;2.60;;;;;;;;;;5026456;28;20061;-32
2021/12/31 02:42:12;;;;;;;2.97;2.30;;;;;;;;;;5026547;28;20079;-29
2021/12/31 02:44:38;;;;;;;3.25;2.75;;;;;;;;;;5026428;28;20040;-33
2021/12/31 02:47:05;;;;;;;2.85;2.40;;;;;;;;;;5027246;28;20491;-35
2021/12/31 02:49:35;;;;;;;3.65;2.72;;;;;;;;;;5026161;28;20098;-33
2021/12/31 02:52:02;;;;;;;3.10;2.60;;;;;;;;;;5024728;28;20033;-34
2021/12/31 02:54:29;;;;;;;3.25;2.78;;;;;;;;;;5026112;28;20478;-30
2021/12/31 02:56:54;;;;;;;2.53;2.17;;;;;;;;;;5025979;28;20116;-35
2021/12/31 02:59:20;;;;;;;3.92;2.75;;;;;;;;;;5026143;28;20026;-31
2021/12/31 03:01:45;;;;;;;2.72;2.50;;;;;;;;;;5008402;28;20049;-34
2021/12/31 03:04:11;;;;;;;3.25;2.78;;;;;;;;;;5024935;28;20456;-32
2021/12/31 03:06:36;;;;;;;3.25;2.60;;;;;;;;;;5026245;28;20384;-33
2021/12/31 03:09:02;;;;;;;3.38;2.90;;;;;;;;;;5024176;28;20050;-31
2021/12/31 03:11:27;;;;;;;3.10;2.60;;;;;;;;;;5026225;28;20487;-33
2021/12/31 03:13:54;;;;;;;3.00;2.45;;;;;;;;;;5024385;28;20030;-30
2021/12/31 03:16:21;;;;;;;3.83;3.00;;;;;;;;;;5026098;28;20034;-33
2021/12/31 03:18:47;;;;;;;3.03;2.40;;;;;;;;;;5025578;28;20030;-32
2021/12/31 03:21:21;;;;;;;2.72;2.50;;;;;;;;;;5025950;28;20033;-33
2021/12/31 03:23:46;;;;;;;3.10;2.60;;;;;;;;;;5025420;28;20102;-32
2021/12/31 03:26:12;;;;;;;2.80;2.50;;;;;;;;;;5025869;28;20579;-28
2021/12/31 03:28:37;;;;;;;3.85;2.42;;;;;;;;;;5025619;28;20409;-31
2021/12/31 03:31:03;;;;;;;3.70;2.90;;;;;;;;;;5025300;28;20060;-32
2021/12/31 03:33:28;;;;;;;2.70;2.40;;;;;;;;;;5025011;28;20095;-33
2021/12/31 03:35:54;;;;;;;2.63;2.42;;;;;;;;;;5025558;28;20104;-32
2021/12/31 03:38:19;;;;;;;3.50;2.53;;;;;;;;;;5025286;28;20455;-28
2021/12/31 03:40:46;;;;;;;2.88;2.53;;;;;;;;;;5025514;28;20036;-33
2021/12/31 03:43:12;;;;;;;3.22;2.85;;;;;;;;;;5023890;28;20049;-29
2021/12/31 03:45:38;;;;;;;3.08;2.55;;;;;;;;;;5025381;28;20890;-32
2021/12/31 03:48:04;;;;;;;3.00;2.65;;;;;;;;;;5026414;28;20107;-32
2021/12/31 03:50:29;;;;;;;3.33;2.28;;;;;;;;;;5025245;28;20037;-30
2021/12/31 03:52:55;;;;;;;2.90;2.50;;;;;;;;;;5025238;28;20480;-31
2021/12/31 03:55:21;;;;;;;3.30;2.80;;;;;;;;;;5025129;28;20018;-33
2021/12/31 03:57:46;;;;;;;3.00;2.60;;;;;;;;;;5024621;28;20520;-33
2021/12/31 04:00:13;;;;;;;3.42;2.90;;;;;;;;;;5025299;28;20035;-30
2021/12/31 04:02:39;;;;;;;3.50;2.85;;;;;;;;;;5024709;28;20507;-34
2021/12/31 04:05:05;;;;;;;3.40;2.80;;;;;;;;;;5024890;28;20151;-34
2021/12/31 04:07:30;;;;;;;3.15;2.63;;;;;;;;;;5024847;28;20451;-35
2021/12/31 04:09:56;;;;;;;3.30;2.83;;;;;;;;;;5024863;28;20025;-33
2021/12/31 04:12:21;;;;;;;2.47;2.28;;;;;;;;;;5024655;28;20029;-33
2021/12/31 04:14:47;;;;;;;3.00;2.70;;;;;;;;;;5024547;28;20034;-33
2021/12/31 04:17:12;;;;;;;2.88;2.53;;;;;;;;;;5024785;28;20033;-36
2021/12/31 04:19:38;;;;;;;2.97;2.42;;;;;;;;;;5024683;28;20483;-29
2021/12/31 04:22:04;;;;;;;3.28;2.92;;;;;;;;;;5024689;28;20030;-34
2021/12/31 04:27:10;;;;;;;2.60;2.30;;;;;;;;;;5024722;28;20044;-32
2021/12/31 04:29:35;;;;;;;3.42;2.53;;;;;;;;;;5024783;28;20037;-31
2021/12/31 04:32:01;;;;;;;3.03;2.50;;;;;;;;;;5024266;28;20048;-34
2021/12/31 04:34:27;;;;;;;2.90;2.60;;;;;;;;;;5024667;28;20108;-33
2021/12/31 04:36:53;;;;;;;3.17;2.70;;;;;;;;;;5022800;28;20041;-36
2021/12/31 04:39:18;;;;;;;3.25;2.60;;;;;;;;;;5032434;28;20028;-31
2021/12/31 04:41:44;;;;;;;3.38;2.58;;;;;;;;;;5043884;28;20992;-35
2021/12/31 04:44:09;;;;;;;3.08;2.58;;;;;;;;;;5043081;28;20527;-32
2021/12/31 04:46:35;;;;;;;3.22;2.53;;;;;;;;;;5038235;28;20041;-33
2021/12/31 04:49:00;;;;;;;3.03;2.50;;;;;;;;;;5023912;28;20022;-33
2021/12/31 04:51:26;;;;;;;2.50;2.28;;;;;;;;;;5024025;28;20022;-31
2021/12/31 04:53:51;;;;;;;3.33;2.67;;;;;;;;;;5024111;28;20065;-30
2021/12/31 04:56:17;;;;;;;3.40;2.83;;;;;;;;;;5024326;28;20021;-30
2021/12/31 04:58:42;;;;;;;3.40;2.95;;;;;;;;;;5023919;28;20060;-31
2021/12/31 05:01:08;;;;;;;3.03;2.72;;;;;;;;;;5024163;28;20025;-34
2021/12/31 05:03:34;;;;;;;3.00;2.70;;;;;;;;;;5023805;28;20415;-31
2021/12/31 05:05:59;;;;;;;3.00;2.67;;;;;;;;;;5023758;28;20037;-32
2021/12/31 05:08:25;;;;;;;2.67;2.45;;;;;;;;;;5023491;28;20577;-32
2021/12/31 05:10:50;;;;;;;2.78;2.45;;;;;;;;;;5023393;28;20048;-29
2021/12/31 05:13:16;;;;;;;3.10;2.50;;;;;;;;;;5023552;28;20114;-34
2021/12/31 05:15:47;;;;;;;2.83;2.60;;;;;;;;;;5023708;28;20069;-32
2021/12/31 05:18:13;;;;;;;3.05;2.58;;;;;;;;;;5023982;28;20033;-31
2021/12/31 05:20:39;;;;;;;3.05;2.70;;;;;;;;;;5023382;28;20040;-36
2021/12/31 05:23:04;;;;;;;2.85;2.50;;;;;;;;;;5023370;28;20033;-29
2021/12/31 05:25:30;;;;;;;3.65;2.63;;;;;;;;;;5023471;28;20036;-33
2021/12/31 05:27:55;;;;;;;3.65;2.42;;;;;;;;;;5023554;28;20045;-32
2021/12/31 05:30:21;;;;;;;2.53;2.17;;;;;;;;;;5023692;28;20041;-33
2021/12/31 05:32:47;;;;;;;2.95;2.30;;;;;;;;;;5023249;28;20033;-28
2021/12/31 05:35:12;;;;;;;2.78;2.28;;;;;;;;;;5021929;28;20030;-34
2021/12/31 05:37:38;;;;;;;3.03;2.45;;;;;;;;;;5023535;28;20028;-29
2021/12/31 05:40:04;;;;;;;2.95;2.50;;;;;;;;;;5023089;28;20025;-32
2021/12/31 05:42:30;;;;;;;2.80;2.30;;;;;;;;;;5023225;28;20098;-35
2021/12/31 05:44:55;;;;;;;2.83;2.40;;;;;;;;;;5023218;28;20029;-35
2021/12/31 05:47:21;;;;;;;3.13;2.72;;;;;;;;;;5024104;28;20041;-31
2021/12/31 05:49:46;;;;;;;3.17;2.63;;;;;;;;;;5022758;28;20025;-35
2021/12/31 05:52:12;;;;;;;2.75;2.33;;;;;;;;;;5025408;28;20475;-32
2021/12/31 05:54:37;;;;;;;3.10;2.50;;;;;;;;;;5042980;28;20025;-34
2021/12/31 05:57:03;;;;;;;2.50;2.22;;;;;;;;;;5042384;28;20020;-31
2021/12/31 05:59:29;;;;;;;2.75;2.25;;;;;;;;;;5043091;28;20035;-29
2021/12/31 06:01:54;;;;;;;2.72;2.40;;;;;;;;;;5042837;28;20025;-32
2021/12/31 06:04:20;;;;;;;2.45;2.17;;;;;;;;;;5031647;28;20511;-30
2021/12/31 06:06:45;;;;;;;3.45;2.70;;;;;;;;;;5023006;28;20029;-33
2021/12/31 06:09:13;;;;;;;2.20;1.98;;;;;;;;;;5022921;28;20427;-34
2021/12/31 06:11:42;;;;;;;3.08;2.53;;;;;;;;;;5022920;28;20039;-32
2021/12/31 06:14:10;;;;;;;3.75;2.30;;;;;;;;;;5022906;28;20044;-35
2021/12/31 06:16:40;;;;;;;3.17;2.25;;;;;;;;;;5005326;28;20709;-35
2021/12/31 06:19:06;;;;;;;3.47;2.88;;;;;;;;;;5023088;28;20032;-37
2021/12/31 06:21:35;;;;;;;2.72;2.35;;;;;;;;;;5022986;28;20033;-34
2021/12/31 06:24:01;;;;;;;2.55;2.20;;;;;;;;;;5022414;28;20025;-29
2021/12/31 06:26:27;;;;;;;2.90;2.50;;;;;;;;;;5022908;28;20087;-36
2021/12/31 06:28:52;;;;;;;3.50;2.58;;;;;;;;;;5022662;28;20029;-29
2021/12/31 06:31:18;;;;;;;3.30;2.67;;;;;;;;;;5022471;28;20559;-30
2021/12/31 06:33:43;;;;;;;3.47;2.90;;;;;;;;;;5022528;28;20068;-32
2021/12/31 06:36:09;;;;;;;2.90;2.50;;;;;;;;;;5022604;28;20492;-30
2021/12/31 06:38:34;;;;;;;3.75;2.90;;;;;;;;;;5022459;28;20025;-33
2021/12/31 06:41:00;;;;;;;3.40;2.65;;;;;;;;;;5022385;28;20103;-36
2021/12/31 06:43:25;;;;;;;9.63;2.53;;;;;;;;;;5022484;28;20056;-32
2021/12/31 06:45:51;;;;;;;2.90;2.50;;;;;;;;;;5021977;28;20098;-31
2021/12/31 06:48:16;;;;;;;3.17;2.63;;;;;;;;;;5042080;28;20033;-31
2021/12/31 06:50:42;;;;;;;3.42;2.70;;;;;;;;;;5042253;28;20045;-29
2021/12/31 06:53:07;;;;;;;3.03;2.42;;;;;;;;;;5042373;28;20032;-34
2021/12/31 06:55:33;;;;;;;3.90;2.67;;;;;;;;;;5042097;28;20040;-34
2021/12/31 06:57:59;;;;;;;3.88;2.85;;;;;;;;;;5042323;28;20040;-35
2021/12/31 07:00:24;;;;;;;3.05;2.42;;;;;;;;;;5042527;28;20033;-32
2021/12/31 07:02:50;;;;;;;2.50;2.30;;;;;;;;;;5041932;28;20458;-32
2021/12/31 07:05:16;;;;;;;3.00;2.60;;;;;;;;;;5032165;28;20053;-31
2021/12/31 07:07:42;;;;;;;3.10;2.60;;;;;;;;;;5022827;28;20108;-32
2021/12/31 07:10:09;;;;;;;3.45;2.78;;;;;;;;;;5025823;28;20060;-33
2021/12/31 07:12:34;;;;;;;3.05;2.35;;;;;;;;;;5024246;28;20026;-34
2021/12/31 07:15:00;;;;;;;3.30;2.42;;;;;;;;;;5025974;28;20029;-34
2021/12/31 07:17:28;;;;;;;3.03;2.60;;;;;;;;;;5025758;28;20037;-35
2021/12/31 07:19:54;;;;;;;3.03;2.45;;;;;;;;;;5025499;28;20087;-35
2021/12/31 07:22:21;;;;;;;3.03;2.65;;;;;;;;;;5025674;28;20034;-33
2021/12/31 07:24:47;;;;;;;2.88;2.40;;;;;;;;;;5025303;28;20036;-34
2021/12/31 07:27:12;;;;;;;3.88;2.53;;;;;;;;;;5025645;28;20033;-36
2021/12/31 07:29:38;;;;;;;3.25;2.80;;;;;;;;;;5026077;28;20064;-35
2021/12/31 07:32:04;;;;;;;3.35;2.47;;;;;;;;;;5025518;28;20116;-35
2021/12/31 07:34:29;;;;;;;2.85;2.53;;;;;;;;;;5025710;28;20041;-32
2021/12/31 07:36:55;;;;;;;3.17;2.63;;;;;;;;;;5025472;28;20049;-32
2021/12/31 07:39:24;;;;;;;2.88;2.40;;;;;;;;;;5025410;28;20048;-32
2021/12/31 07:41:49;;;;;;;2.85;2.25;;;;;;;;;;5025371;28;20144;-30
2021/12/31 07:44:15;;;;;;;3.20;2.65;;;;;;;;;;5025327;28;20021;-32
2021/12/31 07:46:43;;;;;;;2.83;2.22;;;;;;;;;;5026255;28;20025;-30
2021/12/31 07:49:09;;;;;;;3.00;2.67;;;;;;;;;;5025171;28;20036;-32
2021/12/31 07:51:34;;;;;;;3.78;2.60;;;;;;;;;;5025212;28;20033;-29
2021/12/31 07:54:00;;;;;;;3.50;2.53;;;;;;;;;;5031059;28;20025;-29
2021/12/31 07:56:25;;;;;;;3.20;2.50;;;;;;;;;;5045402;28;20490;-32
2021/12/31 07:58:51;;;;;;;2.83;2.38;;;;;;;;;;5045352;28;20029;-34
2021/12/31 08:01:17;;;;;;;3.42;2.50;;;;;;;;;;5045676;28;20063;-33
2021/12/31 08:03:43;;;;;;;3.00;2.42;;;;;;;;;;5045351;28;20025;-33
2021/12/31 08:06:08;;;;;;;2.50;1.88;;;;;;;;;;5045488;28;20482;-31
2021/12/31 08:08:34;;;;;;;2.20;2.00;;;;;;;;;;5045213;28;20040;-30
2021/12/31 08:10:59;;;;;;;3.67;2.80;;;;;;;;;;5044961;28;20064;-34
2021/12/31 08:13:25;;;;;;;3.67;2.70;;;;;;;;;;5045618;28;20033;-35
2021/12/31 08:15:51;;;;;;;2.65;2.08;;;;;;;;;;5044995;28;20380;-31
2021/12/31 08:18:16;;;;;;;3.10;2.30;;;;;;;;;;5045203;28;20025;-32
2021/12/31 08:20:42;;;;;;;2.63;2.10;;;;;;;;;;5044922;28;20044;-29
2021/12/31 08:23:09;;;;;;;2.72;2.28;;;;;;;;;;5045149;28;20036;-32
2021/12/31 08:25:35;;;;;;;2.53;1.95;;;;;;;;;;5044869;28;20556;-32
2021/12/31 08:28:01;;;;;;;2.95;2.22;;;;;;;;;;5044626;28;20574;-30
2021/12/31 08:30:26;;;;;;;2.75;2.22;;;;;;;;;;5044672;28;20029;-28
2021/12/31 08:32:52;;;;;;;3.20;2.20;;;;;;;;;;5044907;28;20112;-28
2021/12/31 08:35:17;;;;;;;2.83;2.35;;;;;;;;;;5044505;28;20031;-29
2021/12/31 08:37:43;;;;;;;2.67;2.00;;;;;;;;;;5044904;28;20036;-32
2021/12/31 08:40:09;;;;;;;2.90;2.25;;;;;;;;;;5044689;28;20823;-34
2021/12/31 08:42:35;;;;;;;2.60;2.40;;;;;;;;;;5044518;28;20029;-31
2021/12/31 08:45:00;;;;;;;2.05;1.85;;;;;;;;;;5044307;28;20040;-31
2021/12/31 08:47:26;;;;;;;2.70;2.25;;;;;;;;;;5044147;28;20021;-29
2021/12/31 08:49:51;;;;;;;2.83;2.25;;;;;;;;;;5044101;28;20045;-31
2021/12/31 08:52:17;;;;;;;3.22;2.35;;;;;;;;;;5044983;28;20016;-29
2021/12/31 08:54:42;;;;;;;3.17;2.17;;;;;;;;;;5043877;28;20032;-36
2021/12/31 08:57:08;;;;;;;3.17;2.60;;;;;;;;;;5044500;28;20025;-33
2021/12/31 08:59:33;;;;;;;2.85;2.20;;;;;;;;;;5044311;28;20631;-35
2021/12/31 09:01:59;;;;;;;2.88;2.38;;;;;;;;;;5043661;28;20665;-32
2021/12/31 09:04:25;;;;;;;2.58;2.25;;;;;;;;;;5044161;28;20028;-29
2021/12/31 09:06:50;;;;;;;2.92;2.00;;;;;;;;;;5044208;28;20035;-35
2021/12/31 09:09:16;;;;;;;2.90;2.15;;;;;;;;;;5043528;28;20060;-29
2021/12/31 09:11:43;;;;;;;2.38;2.13;;;;;;;;;;5043868;28;20658;-33
2021/12/31 09:14:09;;;;;;;2.22;2.00;;;;;;;;;;5044102;28;20506;-34
2021/12/31 09:16:35;;;;;;;2.97;2.00;;;;;;;;;;5043678;28;20033;-33
2021/12/31 09:19:00;;;;;;;2.35;1.95;;;;;;;;;;5043604;28;20044;-30
2021/12/31 09:21:26;;;;;;;2.60;2.30;;;;;;;;;;5043951;28;20072;-29
2021/12/31 09:23:51;;;;;;;2.67;2.10;;;;;;;;;;5043787;28;20037;-36
2021/12/31 09:26:17;;;;;;;2.78;2.17;;;;;;;;;;5044006;28;20029;-32
2021/12/31 09:28:42;;;;;;;2.40;2.05;;;;;;;;;;5043957;28;20499;-34
2021/12/31 09:31:09;;;;;;;2.42;2.03;;;;;;;;;;5043192;28;20075;-33
2021/12/31 09:33:35;;;;;;;2.45;1.95;;;;;;;;;;5043887;28;20033;-32
2021/12/31 09:36:01;;;;;;;2.65;2.10;;;;;;;;;;5043276;28;20519;-32
2021/12/31 09:38:26;;;;;;;2.28;1.92;;;;;;;;;;5043469;28;20032;-32
2021/12/31 09:40:52;;;;;;;2.42;2.08;;;;;;;;;;5030083;28;20041;-32
2021/12/31 09:43:17;;;;;;;2.33;1.92;;;;;;;;;;5021874;28;20474;-36
2021/12/31 09:45:44;;;;;;;2.25;1.77;;;;;;;;;;5023647;28;20040;-32
2021/12/31 09:48:11;;;;;;;2.33;2.08;;;;;;;;;;5043054;28;20504;-33
2021/12/31 09:50:39;;;;;;;2.50;2.10;;;;;;;;;;5043417;28;20041;-30
2021/12/31 09:53:05;;;;;;;2.72;2.00;;;;;;;;;;5042035;28;20044;-31
2021/12/31 09:55:47;;;;;;;2.50;2.05;;;;;;;;;;5043183;28;20032;-30
2021/12/31 09:58:14;;;;;;;3.42;2.10;;;;;;;;;;5043360;28;20033;-33
2021/12/31 10:00:42;;;;;;;1.95;1.52;;;;;;;;;;5043547;28;20149;-34
2021/12/31 10:03:19;;;;;;;2.35;1.90;;;;;;;;;;5043314;28;20530;-30
2021/12/31 10:05:55;;;;;;;2.13;1.90;;;;;;;;;;5043300;28;20037;-32
2021/12/31 10:08:21;;;;;;;2.05;1.75;;;;;;;;;;5042971;28;20526;-32
2021/12/31 10:11:12;;;;;;;2.58;1.90;;;;;;;;;;5043088;28;20028;-38
2021/12/31 10:13:42;;;;;;;3.17;2.22;;;;;;;;;;5043515;28;20029;-37
2021/12/31 10:16:24;;;;;;;2.70;2.00;;;;;;;;;;5042815;28;20039;-33
2021/12/31 10:18:49;;;;;;;2.40;2.13;;;;;;;;;;5042735;28;20116;-33
2021/12/31 10:21:19;;;;;;;2.25;1.95;;;;;;;;;;5043235;28;20032;-32
2021/12/31 10:23:45;;;;;;;2.10;1.85;;;;;;;;;;5042687;28;20033;-32
2021/12/31 10:26:14;;;;;;;2.60;1.92;;;;;;;;;;5043037;28;20808;-33
2021/12/31 10:28:56;;;;;;;2.13;1.85;;;;;;;;;;5042684;28;20065;-35
2021/12/31 10:31:22;;;;;;;2.60;2.40;;;;;;;;;;5042931;28;20515;-36
2021/12/31 10:33:48;;;;;;;2.20;1.85;;;;;;;;;;5042774;28;20032;-36
2021/12/31 10:36:37;;;;;;;2.35;1.90;;;;;;;;;;5042644;28;20051;-31
2021/12/31 10:39:17;;;;;;;2.35;2.10;;;;;;;;;;5039510;28;20048;-35
2021/12/31 10:41:44;;;;;;;1.90;1.65;;;;;;;;;;5042213;28;20116;-35
2021/12/31 10:44:09;;;;;;;2.20;1.80;;;;;;;;;;5044772;28;20609;-35
2021/12/31 10:46:35;;;;;;;2.38;1.88;;;;;;;;;;5036650;28;20132;-32
2021/12/31 10:49:07;;;;;;;2.55;1.83;;;;;;;;;;5026505;28;20021;-36
2021/12/31 10:51:40;;;;;;;2.25;1.80;;;;;;;;;;5026790;28;20037;-33
2021/12/31 10:54:44;;;;;;;2.85;2.10;;;;;;;;;;5026420;28;20025;-38
2021/12/31 10:57:09;;;;;;;;;;;;;;;;;;5027054;28;20033;-35
2021/12/31 10:59:37;;;;;;;2.65;2.05;;;;;;;;;;5026359;28;19917;-30
2021/12/31 11:02:04;;;;;;;3.00;2.28;;;;;;;;;;5026102;28;20658;-33
2021/12/31 11:04:31;;;;;;;2.13;1.80;;;;;;;;;;5026292;28;20029;-32
2021/12/31 11:06:56;;;;;;;2.90;2.40;;;;;;;;;;5024720;28;20044;-29
2021/12/31 11:09:22;;;;;;;2.35;2.00;;;;;;;;;;5024908;28;20045;-31
2021/12/31 11:11:49;;;;;;;2.30;1.95;;;;;;;;;;5024527;28;20032;-30
2021/12/31 11:14:16;;;;;;;2.70;2.13;;;;;;;;;;5026241;28;20087;-35
2021/12/31 11:16:41;;;;;;;2.45;1.92;;;;;;;;;;5026071;28;20045;-33
2021/12/31 11:19:08;;;;;;;2.90;2.10;;;;;;;;;;5026697;28;20021;-27
2021/12/31 11:21:33;;;;;;;2.95;2.00;;;;;;;;;;5024964;28;20032;-29
2021/12/31 11:24:30;;;;;;;2.30;1.83;;;;;;;;;;5008548;28;20049;-31
2021/12/31 11:26:56;;;;;;;2.90;2.30;;;;;;;;;;5019691;28;20045;-32
2021/12/31 11:29:21;;;;;;;2.83;2.13;;;;;;;;;;5026019;28;20045;-27
2021/12/31 11:31:47;;;;;;;2.17;1.95;;;;;;;;;;5025932;28;20467;-32
2021/12/31 11:34:13;;;;;;;2.40;2.00;;;;;;;;;;5025869;28;20043;-29
2021/12/31 11:36:54;;;;;;;3.13;2.15;;;;;;;;;;5024695;28;20028;-28
2021/12/31 11:39:25;;;;;;;3.08;2.00;;;;;;;;;;5025628;28;20084;-31
2021/12/31 11:41:52;;;;;;;2.42;1.88;;;;;;;;;;5025348;28;20036;-31
2021/12/31 11:44:19;;;;;;;2.28;1.85;;;;;;;;;;5025947;28;20343;-32
2021/12/31 11:46:46;;;;;;;2.95;2.50;;;;;;;;;;5026368;28;20140;-36
2021/12/31 11:49:19;;;;;;;2.70;1.98;;;;;;;;;;5025664;28;20025;-29
2021/12/31 11:52:20;;;;;;;2.72;2.13;;;;;;;;;;5025461;28;20058;-33
2021/12/31 11:54:46;;;;;;;2.65;1.98;;;;;;;;;;5025184;28;20512;-35
2021/12/31 11:57:32;;;;;;;3.03;2.05;;;;;;;;;;5025947;28;20028;-31
2021/12/31 11:59:58;;;;;;;2.67;2.30;;;;;;;;;;5025002;28;20080;-33
2021/12/31 12:02:41;;;;;;;2.00;1.80;;;;;;;;;;5025937;28;20057;-31
2021/12/31 12:05:08;;;;;;;;;;;;;;;;;;5025733;28;20686;-30
2021/12/31 12:07:42;;;;;;;2.22;2.00;;;;;;;;;;5024959;28;20454;-31
2021/12/31 12:10:10;;;;;;;2.22;1.95;;;;;;;;;;5025272;28;20079;-32
2021/12/31 12:12:37;;;;;;;2.30;1.70;;;;;;;;;;5025014;28;20030;-33
2021/12/31 12:15:04;;;;;;;2.90;2.35;;;;;;;;;;5025032;28;20048;-33
2021/12/31 12:17:29;;;;;;;3.40;2.47;;;;;;;;;;5025152;28;20026;-31
2021/12/31 12:20:00;;;;;;;2.50;2.15;;;;;;;;;;5039928;28;20043;-37
2021/12/31 12:22:50;;;;;;;2.67;2.15;;;;;;;;;;5044690;28;20029;-28
2021/12/31 12:25:15;;;;;;;2.53;2.22;;;;;;;;;;5044914;28;20878;-31
2021/12/31 12:27:41;;;;;;;3.22;2.47;;;;;;;;;;5044516;28;20037;-32
2021/12/31 12:30:08;;;;;;;2.83;2.28;;;;;;;;;;5044771;28;20086;-32
2021/12/31 12:32:38;;;;;;;2.30;1.90;;;;;;;;;;5044888;28;20025;-33
2021/12/31 12:35:21;;;;;;;3.88;2.30;;;;;;;;;;5044479;28;20048;-30
2021/12/31 12:38:19;;;;;;;2.85;2.13;;;;;;;;;;5044858;28;20444;-34
2021/12/31 12:40:56;;;;;;;2.72;2.10;;;;;;;;;;5044718;28;20040;-32
2021/12/31 12:43:22;;;;;;;3.08;2.17;;;;;;;;;;5044511;28;20533;-33
2021/12/31 12:45:57;;;;;;;3.35;2.38;;;;;;;;;;5041204;28;20108;-33
2021/12/31 12:48:36;;;;;;;2.72;2.20;;;;;;;;;;5024297;28;20496;-31
2021/12/31 12:51:05;;;;;;;3.47;2.58;;;;;;;;;;5024173;28;20714;-31
2021/12/31 12:53:33;;;;;;;2.38;1.98;;;;;;;;;;5024511;28;20039;-30
2021/12/31 12:56:07;;;;;;;2.97;2.30;;;;;;;;;;5023935;28;20029;-29
2021/12/31 12:58:40;;;;;;;2.88;2.40;;;;;;;;;;5024244;28;20037;-37
2021/12/31 13:01:06;;;;;;;;;;;;;;;;;;5024712;28;20087;-34
2021/12/31 13:03:38;;;;;;;3.00;2.42;;;;;;;;;;5024368;28;19978;-33
2021/12/31 13:06:05;;;;;;;2.53;1.90;;;;;;;;;;5021728;28;20033;-33
2021/12/31 13:08:30;;;;;;;2.55;2.10;;;;;;;;;;5023926;28;20080;-33
2021/12/31 13:10:56;;;;;;;2.45;2.05;;;;;;;;;;5023994;28;20864;-30
2021/12/31 13:13:22;;;;;;;2.38;2.08;;;;;;;;;;5023835;28;20039;-37
2021/12/31 13:15:47;;;;;;;2.67;1.95;;;;;;;;;;5023692;28;20064;-32
2021/12/31 13:18:12;;;;;;;2.60;1.92;;;;;;;;;;5022724;28;20053;-35
2021/12/31 13:20:38;;;;;;;3.13;2.30;;;;;;;;;;5006111;28;20025;-34
2021/12/31 13:23:05;;;;;;;2.72;2.03;;;;;;;;;;5023962;28;20491;-33
2021/12/31 13:25:47;;;;;;;2.53;2.10;;;;;;;;;;5024204;28;20025;-35
2021/12/31 13:28:17;;;;;;;2.30;2.00;;;;;;;;;;5023739;28;20068;-32
2021/12/31 13:30:49;;;;;;;2.33;2.03;;;;;;;;;;5023730;28;20042;-32
2021/12/31 13:33:24;;;;;;;2.70;1.88;;;;;;;;;;5023733;28;20641;-33
2021/12/31 13:36:14;;;;;;;3.25;2.25;;;;;;;;;;5023213;28;20116;-31
2021/12/31 13:39:06;;;;;;;2.58;1.95;;;;;;;;;;5023597;28;20025;-33
2021/12/31 13:41:47;;;;;;;2.45;1.98;;;;;;;;;;5024008;28;20111;-33
2021/12/31 13:44:13;;;;;;;3.00;2.35;;;;;;;;;;5023717;28;20530;-30
2021/12/31 13:46:44;;;;;;;3.78;2.55;;;;;;;;;;5033685;28;20033;-30
2021/12/31 13:49:16;;;;;;;2.45;1.80;;;;;;;;;;5043454;28;20061;-30
2021/12/31 13:51:42;;;;;;;2.22;1.90;;;;;;;;;;5043368;28;20041;-33
2021/12/31 13:54:09;;;;;;;3.47;2.42;;;;;;;;;;5043248;28;20112;-32
2021/12/31 13:56:40;;;;;;;3.03;2.20;;;;;;;;;;5043091;28;20483;-30
2021/12/31 13:59:26;;;;;;;2.67;2.00;;;;;;;;;;5043152;28;20032;-30
2021/12/31 14:02:05;;;;;;;2.65;1.95;;;;;;;;;;5043095;28;20052;-31
2021/12/31 14:04:31;;;;;;;3.25;2.42;;;;;;;;;;5042995;28;20068;-36
2021/12/31 14:07:14;;;;;;;2.58;2.00;;;;;;;;;;5043168;28;20032;-33
2021/12/31 14:09:41;;;;;;;3.10;2.17;;;;;;;;;;5042750;28;20486;-29
2021/12/31 14:12:07;;;;;;;2.05;1.85;;;;;;;;;;5035923;28;20108;-31
2021/12/31 14:14:32;;;;;;;2.78;2.22;;;;;;;;;;5021569;28;20633;-35
2021/12/31 14:16:58;;;;;;;2.70;2.00;;;;;;;;;;5024359;28;20029;-32
2021/12/31 14:19:23;;;;;;;1.95;1.55;;;;;;;;;;5027463;28;20026;-35
2021/12/31 14:21:49;;;;;;;2.50;1.70;;;;;;;;;;5026898;28;20821;-33
2021/12/31 14:24:14;;;;;;;2.40;1.98;;;;;;;;;;5027156;28;20026;-32
2021/12/31 14:26:41;;;;;;;3.05;2.30;;;;;;;;;;5026821;28;20582;-35
2021/12/31 14:29:06;;;;;;;2.80;1.90;;;;;;;;;;5027002;28;20581;-32
2021/12/31 14:31:32;;;;;;;2.70;2.10;;;;;;;;;;5039189;28;20036;-33
2021/12/31 14:33:57;;;;;;;2.28;1.98;;;;;;;;;;5046703;28;20025;-31
2021/12/31 14:36:24;;;;;;;1.90;1.70;;;;;;;;;;5046864;28;20025;-33
2021/12/31 14:38:49;;;;;;;2.40;1.90;;;;;;;;;;5047014;28;20554;-32
2021/12/31 14:41:24;;;;;;;2.80;2.03;;;;;;;;;;5046567;28;20033;-31
2021/12/31 14:43:53;;;;;;;1.98;1.60;;;;;;;;;;5046165;28;20029;-34
2021/12/31 14:46:18;;;;;;;2.72;2.00;;;;;;;;;;5039119;28;20491;-32
2021/12/31 14:48:44;;;;;;;2.42;1.90;;;;;;;;;;5026759;28;20075;-30
2021/12/31 14:51:09;;;;;;;2.47;1.95;;;;;;;;;;5026710;28;20029;-30
2021/12/31 14:53:37;;;;;;;2.70;2.10;;;;;;;;;;5026457;28;20713;-32